sensor_id;sensor_type;location;lat;lon;timestamp;temperature;humidity
21207;DHT22;10761;48.532;8.026;2022-10-16T00:01:27;17.40;99.90
21207;DHT22;10761;48.532;8.026;2022-10-16T00:03:54;17.30;99.90
21207;DHT22;10761;48.532;8.026;2022-10-16T00:06:21;17.30;99.90
21207;DHT22;10761;48.532;8.026;2022-10-16T00:08:47;17.20;99.90
21207;DHT22;10761;48.532;8.026;2022-10-16T00:11:16;17.20;99.90
21207;DHT22;10761;48.532;8.026;2022-10-16T00:13:43;17.30;99.90
21207;DHT22;10761;48.532;8.026;2022-10-16T00:16:13;17.30;99.90
21207;DHT22;10761;48.532;8.026;2022-10-16T00:18:39;17.30;99.90
21207;DHT22;10761;48.532;8.026;2022-10-16T00:21:13;17.30;99.90
21207;DHT22;10761;48.532;8.026;2022-10-16T00:23:40;17.40;99.90
21207;DHT22;10761;48.532;8.026;2022-10-16T00:26:08;17.40;99.90
21207;DHT22;10761;48.532;8.026;2022-10-16T00:28:35;17.30;99.90
21207;DHT22;10761;48.532;8.026;2022-10-16T00:31:06;17.30;99.90
21207;DHT22;10761;48.532;8.026;2022-10-16T00:33:32;17.20;99.90
21207;DHT22;10761;48.532;8.026;2022-10-16T00:35:59;17.20;99.90
21207;DHT22;10761;48.532;8.026;2022-10-16T00:38:25;17.20;99.90
21207;DHT22;10761;48.532;8.026;2022-10-16T00:40:50;17.10;99.90
21207;DHT22;10761;48.532;8.026;2022-10-16T00:43:45;17.00;99.90
21207;DHT22;10761;48.532;8.026;2022-10-16T00:46:18;17.00;99.90
21207;DHT22;10761;48.532;8.026;2022-10-16T00:48:50;16.90;99.90
21207;DHT22;10761;48.532;8.026;2022-10-16T00:51:21;16.80;99.90
21207;DHT22;10761;48.532;8.026;2022-10-16T00:53:49;16.80;99.90
21207;DHT22;10761;48.532;8.026;2022-10-16T00:56:14;16.70;99.90
21207;DHT22;10761;48.532;8.026;2022-10-16T00:58:40;16.70;99.90
21207;DHT22;10761;48.532;8.026;2022-10-16T01:01:06;16.60;99.90
21207;DHT22;10761;48.532;8.026;2022-10-16T01:03:35;16.60;99.90
21207;DHT22;10761;48.532;8.026;2022-10-16T01:06:36;16.50;99.90
21207;DHT22;10761;48.532;8.026;2022-10-16T01:11:49;16.40;99.90
21207;DHT22;10761;48.532;8.026;2022-10-16T01:22:26;16.30;99.90
21207;DHT22;10761;48.532;8.026;2022-10-16T01:25:00;16.30;99.90
21207;DHT22;10761;48.532;8.026;2022-10-16T01:27:32;16.20;99.90
21207;DHT22;10761;48.532;8.026;2022-10-16T01:30:25;16.20;99.90
21207;DHT22;10761;48.532;8.026;2022-10-16T01:33:02;16.20;99.90
21207;DHT22;10761;48.532;8.026;2022-10-16T01:35:38;16.30;99.90
21207;DHT22;10761;48.532;8.026;2022-10-16T01:38:17;16.20;99.90
21207;DHT22;10761;48.532;8.026;2022-10-16T01:40:50;16.20;99.90
21207;DHT22;10761;48.532;8.026;2022-10-16T01:43:27;16.20;99.90
21207;DHT22;10761;48.532;8.026;2022-10-16T01:45:55;16.10;99.90
21207;DHT22;10761;48.532;8.026;2022-10-16T01:48:21;16.10;99.90
21207;DHT22;10761;48.532;8.026;2022-10-16T01:50:57;16.10;99.90
21207;DHT22;10761;48.532;8.026;2022-10-16T01:53:24;16.00;99.90
21207;DHT22;10761;48.532;8.026;2022-10-16T01:55:52;16.00;99.90
21207;DHT22;10761;48.532;8.026;2022-10-16T01:58:21;15.90;99.90
21207;DHT22;10761;48.532;8.026;2022-10-16T02:00:47;15.80;99.90
21207;DHT22;10761;48.532;8.026;2022-10-16T02:03:16;15.80;99.90
21207;DHT22;10761;48.532;8.026;2022-10-16T02:05:50;15.80;99.90
21207;DHT22;10761;48.532;8.026;2022-10-16T02:08:17;15.80;99.90
21207;DHT22;10761;48.532;8.026;2022-10-16T02:10:43;15.80;99.90
21207;DHT22;10761;48.532;8.026;2022-10-16T02:13:15;15.80;99.90
21207;DHT22;10761;48.532;8.026;2022-10-16T02:15:42;15.70;99.90
21207;DHT22;10761;48.532;8.026;2022-10-16T02:18:08;15.60;99.90
21207;DHT22;10761;48.532;8.026;2022-10-16T02:20:43;15.50;99.90
21207;DHT22;10761;48.532;8.026;2022-10-16T02:23:13;15.50;99.90
21207;DHT22;10761;48.532;8.026;2022-10-16T02:25:45;15.50;99.90
21207;DHT22;10761;48.532;8.026;2022-10-16T02:28:19;15.40;99.90
21207;DHT22;10761;48.532;8.026;2022-10-16T02:30:59;15.40;99.90
21207;DHT22;10761;48.532;8.026;2022-10-16T02:33:28;15.40;99.90
21207;DHT22;10761;48.532;8.026;2022-10-16T02:35:55;15.30;99.90
21207;DHT22;10761;48.532;8.026;2022-10-16T02:38:23;15.30;99.90
21207;DHT22;10761;48.532;8.026;2022-10-16T02:40:50;15.30;99.90
21207;DHT22;10761;48.532;8.026;2022-10-16T02:43:16;15.40;99.90
21207;DHT22;10761;48.532;8.026;2022-10-16T02:45:41;15.40;99.90
21207;DHT22;10761;48.532;8.026;2022-10-16T02:48:07;15.30;99.90
21207;DHT22;10761;48.532;8.026;2022-10-16T02:50:33;15.40;99.90
21207;DHT22;10761;48.532;8.026;2022-10-16T02:52:59;15.40;99.90
21207;DHT22;10761;48.532;8.026;2022-10-16T02:55:24;15.40;99.90
21207;DHT22;10761;48.532;8.026;2022-10-16T02:57:50;15.40;99.90
21207;DHT22;10761;48.532;8.026;2022-10-16T03:00:17;15.30;99.90
21207;DHT22;10761;48.532;8.026;2022-10-16T03:02:43;15.20;99.90
21207;DHT22;10761;48.532;8.026;2022-10-16T03:05:10;15.20;99.90
21207;DHT22;10761;48.532;8.026;2022-10-16T03:07:36;15.10;99.90
21207;DHT22;10761;48.532;8.026;2022-10-16T03:10:02;15.20;99.90
21207;DHT22;10761;48.532;8.026;2022-10-16T03:12:28;15.20;99.90
21207;DHT22;10761;48.532;8.026;2022-10-16T03:14:54;15.20;99.90
21207;DHT22;10761;48.532;8.026;2022-10-16T03:17:20;15.20;99.90
21207;DHT22;10761;48.532;8.026;2022-10-16T03:19:46;15.10;99.90
21207;DHT22;10761;48.532;8.026;2022-10-16T03:22:11;15.10;99.90
21207;DHT22;10761;48.532;8.026;2022-10-16T03:24:37;15.10;99.90
21207;DHT22;10761;48.532;8.026;2022-10-16T03:27:03;15.10;99.90
21207;DHT22;10761;48.532;8.026;2022-10-16T03:29:28;15.10;99.90
21207;DHT22;10761;48.532;8.026;2022-10-16T03:31:55;15.20;99.90
21207;DHT22;10761;48.532;8.026;2022-10-16T03:34:21;15.10;99.90
21207;DHT22;10761;48.532;8.026;2022-10-16T03:36:47;15.10;99.90
21207;DHT22;10761;48.532;8.026;2022-10-16T03:39:13;15.10;99.90
21207;DHT22;10761;48.532;8.026;2022-10-16T03:41:39;15.10;99.90
21207;DHT22;10761;48.532;8.026;2022-10-16T03:44:04;15.00;99.90
21207;DHT22;10761;48.532;8.026;2022-10-16T03:46:30;15.00;99.90
21207;DHT22;10761;48.532;8.026;2022-10-16T03:48:56;15.10;99.90
21207;DHT22;10761;48.532;8.026;2022-10-16T03:51:21;15.10;99.90
21207;DHT22;10761;48.532;8.026;2022-10-16T03:53:47;15.10;99.90
21207;DHT22;10761;48.532;8.026;2022-10-16T03:56:12;15.10;99.90
21207;DHT22;10761;48.532;8.026;2022-10-16T03:58:38;15.00;99.90
21207;DHT22;10761;48.532;8.026;2022-10-16T04:01:04;15.00;99.90
21207;DHT22;10761;48.532;8.026;2022-10-16T04:03:29;15.00;99.90
21207;DHT22;10761;48.532;8.026;2022-10-16T04:05:55;14.90;99.90
21207;DHT22;10761;48.532;8.026;2022-10-16T04:08:21;14.90;99.90
21207;DHT22;10761;48.532;8.026;2022-10-16T04:10:46;14.90;99.90
21207;DHT22;10761;48.532;8.026;2022-10-16T04:13:12;14.80;99.90
21207;DHT22;10761;48.532;8.026;2022-10-16T04:15:38;14.80;99.90
21207;DHT22;10761;48.532;8.026;2022-10-16T04:18:04;14.70;99.90
21207;DHT22;10761;48.532;8.026;2022-10-16T04:20:30;14.70;99.90
21207;DHT22;10761;48.532;8.026;2022-10-16T04:22:56;14.60;99.90
21207;DHT22;10761;48.532;8.026;2022-10-16T04:25:21;14.60;99.90
21207;DHT22;10761;48.532;8.026;2022-10-16T04:27:47;14.50;99.90
21207;DHT22;10761;48.532;8.026;2022-10-16T04:30:13;14.50;99.90
21207;DHT22;10761;48.532;8.026;2022-10-16T04:32:39;14.40;99.90
21207;DHT22;10761;48.532;8.026;2022-10-16T04:35:05;14.40;99.90
21207;DHT22;10761;48.532;8.026;2022-10-16T04:37:31;14.40;99.90
21207;DHT22;10761;48.532;8.026;2022-10-16T04:39:56;14.40;99.90
21207;DHT22;10761;48.532;8.026;2022-10-16T04:42:22;14.40;99.90
21207;DHT22;10761;48.532;8.026;2022-10-16T04:44:48;14.40;99.90
21207;DHT22;10761;48.532;8.026;2022-10-16T04:47:14;14.30;99.90
21207;DHT22;10761;48.532;8.026;2022-10-16T04:49:39;14.30;99.90
21207;DHT22;10761;48.532;8.026;2022-10-16T04:52:05;14.30;99.90
21207;DHT22;10761;48.532;8.026;2022-10-16T04:54:31;14.40;99.90
21207;DHT22;10761;48.532;8.026;2022-10-16T04:56:57;14.30;99.90
21207;DHT22;10761;48.532;8.026;2022-10-16T04:59:23;14.30;99.90
21207;DHT22;10761;48.532;8.026;2022-10-16T05:01:49;14.30;99.90
21207;DHT22;10761;48.532;8.026;2022-10-16T05:04:15;14.30;99.90
21207;DHT22;10761;48.532;8.026;2022-10-16T05:06:41;14.30;99.90
21207;DHT22;10761;48.532;8.026;2022-10-16T05:09:08;14.30;99.90
21207;DHT22;10761;48.532;8.026;2022-10-16T05:11:34;14.30;99.90
21207;DHT22;10761;48.532;8.026;2022-10-16T05:14:00;14.30;99.90
21207;DHT22;10761;48.532;8.026;2022-10-16T05:16:26;14.20;99.90
21207;DHT22;10761;48.532;8.026;2022-10-16T05:18:52;14.30;99.90
21207;DHT22;10761;48.532;8.026;2022-10-16T05:21:18;14.20;99.90
21207;DHT22;10761;48.532;8.026;2022-10-16T05:23:43;14.20;99.90
21207;DHT22;10761;48.532;8.026;2022-10-16T05:26:09;14.20;99.90
21207;DHT22;10761;48.532;8.026;2022-10-16T05:28:35;14.20;99.90
21207;DHT22;10761;48.532;8.026;2022-10-16T05:31:08;14.20;99.90
21207;DHT22;10761;48.532;8.026;2022-10-16T05:33:34;14.30;99.90
21207;DHT22;10761;48.532;8.026;2022-10-16T05:36:04;14.30;99.90
21207;DHT22;10761;48.532;8.026;2022-10-16T05:38:31;14.40;99.90
21207;DHT22;10761;48.532;8.026;2022-10-16T05:40:57;14.40;99.90
21207;DHT22;10761;48.532;8.026;2022-10-16T05:43:23;14.50;99.90
21207;DHT22;10761;48.532;8.026;2022-10-16T05:45:56;14.50;99.90
21207;DHT22;10761;48.532;8.026;2022-10-16T05:48:23;14.50;99.90
21207;DHT22;10761;48.532;8.026;2022-10-16T05:50:59;14.60;99.90
21207;DHT22;10761;48.532;8.026;2022-10-16T05:53:25;14.60;99.90
21207;DHT22;10761;48.532;8.026;2022-10-16T05:55:54;14.60;99.90
21207;DHT22;10761;48.532;8.026;2022-10-16T05:58:21;14.70;99.90
21207;DHT22;10761;48.532;8.026;2022-10-16T06:00:56;14.70;99.90
21207;DHT22;10761;48.532;8.026;2022-10-16T06:03:22;14.70;99.90
21207;DHT22;10761;48.532;8.026;2022-10-16T06:05:48;14.80;99.90
21207;DHT22;10761;48.532;8.026;2022-10-16T06:08:14;14.70;99.90
21207;DHT22;10761;48.532;8.026;2022-10-16T06:10:40;14.70;99.90
21207;DHT22;10761;48.532;8.026;2022-10-16T06:13:05;14.70;99.90
21207;DHT22;10761;48.532;8.026;2022-10-16T06:15:31;14.80;99.90
21207;DHT22;10761;48.532;8.026;2022-10-16T06:17:56;14.80;99.90
21207;DHT22;10761;48.532;8.026;2022-10-16T06:20:22;14.80;99.90
21207;DHT22;10761;48.532;8.026;2022-10-16T06:22:48;14.80;99.90
21207;DHT22;10761;48.532;8.026;2022-10-16T06:25:13;14.90;99.90
21207;DHT22;10761;48.532;8.026;2022-10-16T06:27:40;14.90;99.90
21207;DHT22;10761;48.532;8.026;2022-10-16T06:30:06;14.90;99.90
21207;DHT22;10761;48.532;8.026;2022-10-16T06:32:32;14.90;99.90
21207;DHT22;10761;48.532;8.026;2022-10-16T06:34:58;14.90;99.90
21207;DHT22;10761;48.532;8.026;2022-10-16T06:37:24;15.00;99.90
21207;DHT22;10761;48.532;8.026;2022-10-16T06:39:50;15.00;99.90
21207;DHT22;10761;48.532;8.026;2022-10-16T06:42:19;15.10;99.90
21207;DHT22;10761;48.532;8.026;2022-10-16T06:44:45;15.10;99.90
21207;DHT22;10761;48.532;8.026;2022-10-16T06:47:11;15.10;99.90
21207;DHT22;10761;48.532;8.026;2022-10-16T06:49:36;15.10;99.90
21207;DHT22;10761;48.532;8.026;2022-10-16T06:52:02;15.00;99.90
21207;DHT22;10761;48.532;8.026;2022-10-16T06:54:28;15.00;99.90
21207;DHT22;10761;48.532;8.026;2022-10-16T06:56:54;15.00;99.90
21207;DHT22;10761;48.532;8.026;2022-10-16T06:59:20;15.00;99.90
21207;DHT22;10761;48.532;8.026;2022-10-16T07:01:46;15.10;99.90
21207;DHT22;10761;48.532;8.026;2022-10-16T07:04:12;15.10;99.90
21207;DHT22;10761;48.532;8.026;2022-10-16T07:06:38;15.10;99.90
21207;DHT22;10761;48.532;8.026;2022-10-16T07:09:06;15.20;99.90
21207;DHT22;10761;48.532;8.026;2022-10-16T07:11:32;15.20;99.90
21207;DHT22;10761;48.532;8.026;2022-10-16T07:13:58;15.20;99.90
21207;DHT22;10761;48.532;8.026;2022-10-16T07:16:26;15.30;99.90
21207;DHT22;10761;48.532;8.026;2022-10-16T07:18:54;15.30;99.90
21207;DHT22;10761;48.532;8.026;2022-10-16T07:21:23;15.30;99.90
21207;DHT22;10761;48.532;8.026;2022-10-16T07:23:55;15.30;99.90
21207;DHT22;10761;48.532;8.026;2022-10-16T07:26:22;15.20;99.90
21207;DHT22;10761;48.532;8.026;2022-10-16T07:28:49;15.30;99.90
21207;DHT22;10761;48.532;8.026;2022-10-16T07:31:16;15.30;99.90
21207;DHT22;10761;48.532;8.026;2022-10-16T07:33:43;15.30;99.90
21207;DHT22;10761;48.532;8.026;2022-10-16T07:36:13;15.30;99.90
21207;DHT22;10761;48.532;8.026;2022-10-16T07:38:38;15.30;99.90
21207;DHT22;10761;48.532;8.026;2022-10-16T07:41:06;15.30;99.90
21207;DHT22;10761;48.532;8.026;2022-10-16T07:43:32;15.40;99.90
21207;DHT22;10761;48.532;8.026;2022-10-16T07:45:59;15.40;99.90
21207;DHT22;10761;48.532;8.026;2022-10-16T07:48:28;15.50;99.90
21207;DHT22;10761;48.532;8.026;2022-10-16T07:50:59;15.50;99.90
21207;DHT22;10761;48.532;8.026;2022-10-16T07:53:24;15.60;99.90
21207;DHT22;10761;48.532;8.026;2022-10-16T07:55:50;15.60;99.90
21207;DHT22;10761;48.532;8.026;2022-10-16T07:58:16;15.60;99.90
21207;DHT22;10761;48.532;8.026;2022-10-16T08:00:41;15.70;99.90
21207;DHT22;10761;48.532;8.026;2022-10-16T08:03:08;15.80;99.90
21207;DHT22;10761;48.532;8.026;2022-10-16T08:05:33;16.00;99.90
21207;DHT22;10761;48.532;8.026;2022-10-16T08:08:00;16.20;99.90
21207;DHT22;10761;48.532;8.026;2022-10-16T08:10:28;16.30;99.90
21207;DHT22;10761;48.532;8.026;2022-10-16T08:12:53;16.50;99.90
21207;DHT22;10761;48.532;8.026;2022-10-16T08:15:19;16.60;99.90
21207;DHT22;10761;48.532;8.026;2022-10-16T08:17:54;16.70;99.90
21207;DHT22;10761;48.532;8.026;2022-10-16T08:20:20;16.80;99.90
21207;DHT22;10761;48.532;8.026;2022-10-16T08:22:45;16.90;99.90
21207;DHT22;10761;48.532;8.026;2022-10-16T08:25:11;17.10;99.90
21207;DHT22;10761;48.532;8.026;2022-10-16T08:27:37;17.40;99.90
21207;DHT22;10761;48.532;8.026;2022-10-16T08:30:02;17.60;99.90
21207;DHT22;10761;48.532;8.026;2022-10-16T08:32:28;17.70;99.90
21207;DHT22;10761;48.532;8.026;2022-10-16T08:34:54;17.80;99.90
21207;DHT22;10761;48.532;8.026;2022-10-16T08:37:19;17.90;99.90
21207;DHT22;10761;48.532;8.026;2022-10-16T08:39:45;18.10;99.90
21207;DHT22;10761;48.532;8.026;2022-10-16T08:42:20;18.20;99.90
21207;DHT22;10761;48.532;8.026;2022-10-16T08:50:12;18.50;99.90
21207;DHT22;10761;48.532;8.026;2022-10-16T08:52:41;18.60;99.90
21207;DHT22;10761;48.532;8.026;2022-10-16T08:55:39;18.70;99.90
21207;DHT22;10761;48.532;8.026;2022-10-16T08:58:18;19.00;99.90
21207;DHT22;10761;48.532;8.026;2022-10-16T09:00:54;19.20;99.90
21207;DHT22;10761;48.532;8.026;2022-10-16T09:16:35;23.60;99.90
21207;DHT22;10761;48.532;8.026;2022-10-16T09:21:39;25.40;99.90
21207;DHT22;10761;48.532;8.026;2022-10-16T09:24:12;26.00;99.90
21207;DHT22;10761;48.532;8.026;2022-10-16T09:26:38;26.60;99.90
21207;DHT22;10761;48.532;8.026;2022-10-16T09:29:04;26.70;99.90
21207;DHT22;10761;48.532;8.026;2022-10-16T09:31:30;26.40;99.90
21207;DHT22;10761;48.532;8.026;2022-10-16T09:34:00;26.00;99.90
21207;DHT22;10761;48.532;8.026;2022-10-16T09:36:39;25.60;99.90
21207;DHT22;10761;48.532;8.026;2022-10-16T09:39:09;25.50;99.90
21207;DHT22;10761;48.532;8.026;2022-10-16T09:41:40;24.80;99.90
21207;DHT22;10761;48.532;8.026;2022-10-16T09:47:01;23.70;99.90
21207;DHT22;10761;48.532;8.026;2022-10-16T09:49:27;23.20;99.90
21207;DHT22;10761;48.532;8.026;2022-10-16T09:52:04;22.80;99.90
21207;DHT22;10761;48.532;8.026;2022-10-16T09:54:30;22.40;99.90
21207;DHT22;10761;48.532;8.026;2022-10-16T09:57:07;22.00;99.90
21207;DHT22;10761;48.532;8.026;2022-10-16T09:59:46;21.80;99.90
21207;DHT22;10761;48.532;8.026;2022-10-16T10:02:14;21.50;99.90
21207;DHT22;10761;48.532;8.026;2022-10-16T10:04:50;21.40;99.90
21207;DHT22;10761;48.532;8.026;2022-10-16T10:07:19;21.30;99.90
21207;DHT22;10761;48.532;8.026;2022-10-16T10:09:46;21.40;99.90
21207;DHT22;10761;48.532;8.026;2022-10-16T10:12:28;21.50;99.90
21207;DHT22;10761;48.532;8.026;2022-10-16T10:14:57;21.60;99.90
21207;DHT22;10761;48.532;8.026;2022-10-16T10:17:25;21.60;99.90
21207;DHT22;10761;48.532;8.026;2022-10-16T10:19:58;21.50;99.90
21207;DHT22;10761;48.532;8.026;2022-10-16T10:33:47;22.20;99.90
21207;DHT22;10761;48.532;8.026;2022-10-16T10:36:37;22.30;99.90
21207;DHT22;10761;48.532;8.026;2022-10-16T10:39:16;22.60;99.90
21207;DHT22;10761;48.532;8.026;2022-10-16T10:42:13;22.70;99.90
21207;DHT22;10761;48.532;8.026;2022-10-16T10:45:03;22.70;99.90
21207;DHT22;10761;48.532;8.026;2022-10-16T10:48:11;22.50;99.90
21207;DHT22;10761;48.532;8.026;2022-10-16T10:51:08;22.40;99.90
21207;DHT22;10761;48.532;8.026;2022-10-16T10:56:51;22.40;99.90
21207;DHT22;10761;48.532;8.026;2022-10-16T10:59:47;22.50;99.90
21207;DHT22;10761;48.532;8.026;2022-10-16T11:08:00;22.70;99.90
21207;DHT22;10761;48.532;8.026;2022-10-16T11:10:30;23.00;99.90
21207;DHT22;10761;48.532;8.026;2022-10-16T11:13:19;23.40;99.90
21207;DHT22;10761;48.532;8.026;2022-10-16T11:15:48;23.50;99.90
21207;DHT22;10761;48.532;8.026;2022-10-16T11:18:20;23.50;99.90
21207;DHT22;10761;48.532;8.026;2022-10-16T11:20:54;23.50;99.90
21207;DHT22;10761;48.532;8.026;2022-10-16T11:23:29;23.90;99.90
21207;DHT22;10761;48.532;8.026;2022-10-16T11:26:14;24.60;99.90
21207;DHT22;10761;48.532;8.026;2022-10-16T11:28:51;25.50;99.90
21207;DHT22;10761;48.532;8.026;2022-10-16T11:31:32;25.90;99.90
21207;DHT22;10761;48.532;8.026;2022-10-16T11:36:36;25.80;99.90
21207;DHT22;10761;48.532;8.026;2022-10-16T11:41:47;25.50;99.90
21207;DHT22;10761;48.532;8.026;2022-10-16T11:46:43;25.20;99.90
21207;DHT22;10761;48.532;8.026;2022-10-16T11:49:12;25.00;99.90
21207;DHT22;10761;48.532;8.026;2022-10-16T11:51:43;25.10;99.90
21207;DHT22;10761;48.532;8.026;2022-10-16T11:54:32;25.30;99.90
21207;DHT22;10761;48.532;8.026;2022-10-16T11:57:02;25.50;99.90
21207;DHT22;10761;48.532;8.026;2022-10-16T11:59:47;25.70;99.90
21207;DHT22;10761;48.532;8.026;2022-10-16T12:08:04;26.00;99.90
21207;DHT22;10761;48.532;8.026;2022-10-16T12:10:32;26.50;99.90
21207;DHT22;10761;48.532;8.026;2022-10-16T12:13:02;26.50;99.90
21207;DHT22;10761;48.532;8.026;2022-10-16T12:15:31;26.00;99.90
21207;DHT22;10761;48.532;8.026;2022-10-16T12:17:57;26.30;99.90
21207;DHT22;10761;48.532;8.026;2022-10-16T12:23:01;27.20;99.90
21207;DHT22;10761;48.532;8.026;2022-10-16T12:28:06;27.00;99.90
21207;DHT22;10761;48.532;8.026;2022-10-16T12:30:35;26.80;99.90
21207;DHT22;10761;48.532;8.026;2022-10-16T12:33:06;26.60;99.90
21207;DHT22;10761;48.532;8.026;2022-10-16T12:35:45;26.40;99.90
21207;DHT22;10761;48.532;8.026;2022-10-16T12:38:21;26.00;99.90
21207;DHT22;10761;48.532;8.026;2022-10-16T12:43:27;25.30;99.90
21207;DHT22;10761;48.532;8.026;2022-10-16T12:46:18;25.20;99.90
21207;DHT22;10761;48.532;8.026;2022-10-16T12:48:45;24.90;99.90
21207;DHT22;10761;48.532;8.026;2022-10-16T12:51:35;24.80;99.90
21207;DHT22;10761;48.532;8.026;2022-10-16T13:07:23;25.10;99.90
21207;DHT22;10761;48.532;8.026;2022-10-16T13:15:22;25.60;99.90
21207;DHT22;10761;48.532;8.026;2022-10-16T13:23:50;25.80;99.90
21207;DHT22;10761;48.532;8.026;2022-10-16T13:29:07;26.20;99.90
21207;DHT22;10761;48.532;8.026;2022-10-16T13:31:33;26.50;99.90
21207;DHT22;10761;48.532;8.026;2022-10-16T13:34:00;26.60;99.90
21207;DHT22;10761;48.532;8.026;2022-10-16T13:36:49;26.90;99.90
21207;DHT22;10761;48.532;8.026;2022-10-16T13:39:25;27.10;99.90
21207;DHT22;10761;48.532;8.026;2022-10-16T13:44:37;28.20;99.90
21207;DHT22;10761;48.532;8.026;2022-10-16T13:47:05;28.10;99.90
21207;DHT22;10761;48.532;8.026;2022-10-16T13:49:30;27.90;99.90
21207;DHT22;10761;48.532;8.026;2022-10-16T13:51:58;27.60;99.90
21207;DHT22;10761;48.532;8.026;2022-10-16T13:54:25;27.30;99.90
21207;DHT22;10761;48.532;8.026;2022-10-16T13:56:51;27.20;99.90
21207;DHT22;10761;48.532;8.026;2022-10-16T13:59:36;27.50;99.90
21207;DHT22;10761;48.532;8.026;2022-10-16T14:02:31;28.20;99.90
21207;DHT22;10761;48.532;8.026;2022-10-16T14:05:01;28.10;99.90
21207;DHT22;10761;48.532;8.026;2022-10-16T14:07:32;27.60;99.90
21207;DHT22;10761;48.532;8.026;2022-10-16T14:10:04;27.40;99.90
21207;DHT22;10761;48.532;8.026;2022-10-16T14:12:31;28.60;99.90
21207;DHT22;10761;48.532;8.026;2022-10-16T14:14:57;30.60;99.90
21207;DHT22;10761;48.532;8.026;2022-10-16T14:17:30;32.30;99.90
21207;DHT22;10761;48.532;8.026;2022-10-16T14:19:59;33.20;99.90
21207;DHT22;10761;48.532;8.026;2022-10-16T14:25:00;34.50;92.80
21207;DHT22;10761;48.532;8.026;2022-10-16T14:27:33;34.90;90.90
21207;DHT22;10761;48.532;8.026;2022-10-16T14:30:18;34.10;92.10
21207;DHT22;10761;48.532;8.026;2022-10-16T14:35:40;34.40;91.00
21207;DHT22;10761;48.532;8.026;2022-10-16T14:38:18;34.40;89.50
21207;DHT22;10761;48.532;8.026;2022-10-16T14:40:48;34.10;87.90
21207;DHT22;10761;48.532;8.026;2022-10-16T14:43:22;33.80;89.30
21207;DHT22;10761;48.532;8.026;2022-10-16T14:45:55;33.90;89.80
21207;DHT22;10761;48.532;8.026;2022-10-16T14:48:21;34.10;88.40
21207;DHT22;10761;48.532;8.026;2022-10-16T14:50:48;34.50;84.90
21207;DHT22;10761;48.532;8.026;2022-10-16T14:53:14;34.30;84.10
21207;DHT22;10761;48.532;8.026;2022-10-16T14:55:41;33.50;84.90
21207;DHT22;10761;48.532;8.026;2022-10-16T14:58:19;33.10;87.30
21207;DHT22;10761;48.532;8.026;2022-10-16T15:00:45;32.90;87.40
21207;DHT22;10761;48.532;8.026;2022-10-16T15:03:11;32.30;88.80
21207;DHT22;10761;48.532;8.026;2022-10-16T15:05:37;31.50;90.60
21207;DHT22;10761;48.532;8.026;2022-10-16T15:08:03;30.80;92.70
21207;DHT22;10761;48.532;8.026;2022-10-16T15:10:31;30.20;93.00
21207;DHT22;10761;48.532;8.026;2022-10-16T15:12:58;29.30;93.70
21207;DHT22;10761;48.532;8.026;2022-10-16T15:15:37;29.00;96.80
21207;DHT22;10761;48.532;8.026;2022-10-16T15:18:03;29.90;96.80
21207;DHT22;10761;48.532;8.026;2022-10-16T15:20:32;31.10;95.90
21207;DHT22;10761;48.532;8.026;2022-10-16T15:23:00;32.30;93.30
21207;DHT22;10761;48.532;8.026;2022-10-16T15:25:41;32.40;93.60
21207;DHT22;10761;48.532;8.026;2022-10-16T15:28:08;31.90;94.00
21207;DHT22;10761;48.532;8.026;2022-10-16T15:30:34;31.30;95.20
21207;DHT22;10761;48.532;8.026;2022-10-16T15:33:00;31.30;95.50
21207;DHT22;10761;48.532;8.026;2022-10-16T15:35:26;30.80;96.50
21207;DHT22;10761;48.532;8.026;2022-10-16T15:37:52;30.60;97.00
21207;DHT22;10761;48.532;8.026;2022-10-16T15:40:19;30.10;97.60
21207;DHT22;10761;48.532;8.026;2022-10-16T15:42:45;29.50;98.70
21207;DHT22;10761;48.532;8.026;2022-10-16T15:45:11;29.30;99.90
21207;DHT22;10761;48.532;8.026;2022-10-16T15:47:37;29.40;99.90
21207;DHT22;10761;48.532;8.026;2022-10-16T15:50:04;29.40;99.90
21207;DHT22;10761;48.532;8.026;2022-10-16T15:52:30;29.60;99.90
21207;DHT22;10761;48.532;8.026;2022-10-16T15:54:57;29.50;99.90
21207;DHT22;10761;48.532;8.026;2022-10-16T15:57:23;29.70;99.90
21207;DHT22;10761;48.532;8.026;2022-10-16T15:59:49;29.80;99.60
21207;DHT22;10761;48.532;8.026;2022-10-16T16:02:15;29.20;99.90
21207;DHT22;10761;48.532;8.026;2022-10-16T16:04:41;28.40;99.90
21207;DHT22;10761;48.532;8.026;2022-10-16T16:07:07;27.90;99.90
21207;DHT22;10761;48.532;8.026;2022-10-16T16:09:33;27.90;99.90
21207;DHT22;10761;48.532;8.026;2022-10-16T16:11:59;28.00;99.90
21207;DHT22;10761;48.532;8.026;2022-10-16T16:14:26;28.00;99.90
21207;DHT22;10761;48.532;8.026;2022-10-16T16:16:54;28.00;99.90
21207;DHT22;10761;48.532;8.026;2022-10-16T16:19:20;27.70;99.90
21207;DHT22;10761;48.532;8.026;2022-10-16T16:21:49;27.20;99.90
21207;DHT22;10761;48.532;8.026;2022-10-16T16:24:15;26.50;99.90
21207;DHT22;10761;48.532;8.026;2022-10-16T16:26:41;25.70;99.90
21207;DHT22;10761;48.532;8.026;2022-10-16T16:29:12;25.10;99.90
21207;DHT22;10761;48.532;8.026;2022-10-16T16:31:39;24.40;99.90
21207;DHT22;10761;48.532;8.026;2022-10-16T16:34:05;23.90;99.90
21207;DHT22;10761;48.532;8.026;2022-10-16T16:36:31;23.30;99.90
21207;DHT22;10761;48.532;8.026;2022-10-16T16:38:57;22.80;99.90
21207;DHT22;10761;48.532;8.026;2022-10-16T16:41:26;22.50;99.90
21207;DHT22;10761;48.532;8.026;2022-10-16T16:43:53;22.20;99.90
21207;DHT22;10761;48.532;8.026;2022-10-16T16:46:20;21.90;99.90
21207;DHT22;10761;48.532;8.026;2022-10-16T16:48:46;21.70;99.90
21207;DHT22;10761;48.532;8.026;2022-10-16T16:51:14;21.50;99.90
21207;DHT22;10761;48.532;8.026;2022-10-16T16:53:42;21.20;99.90
21207;DHT22;10761;48.532;8.026;2022-10-16T16:56:08;21.00;99.90
21207;DHT22;10761;48.532;8.026;2022-10-16T16:58:34;20.80;99.90
21207;DHT22;10761;48.532;8.026;2022-10-16T17:01:01;20.60;99.90
21207;DHT22;10761;48.532;8.026;2022-10-16T17:03:31;20.30;99.90
21207;DHT22;10761;48.532;8.026;2022-10-16T17:05:59;20.20;99.90
21207;DHT22;10761;48.532;8.026;2022-10-16T17:08:25;20.00;99.90
21207;DHT22;10761;48.532;8.026;2022-10-16T17:10:51;20.00;99.90
21207;DHT22;10761;48.532;8.026;2022-10-16T17:13:21;19.90;99.90
21207;DHT22;10761;48.532;8.026;2022-10-16T17:15:48;19.70;99.90
21207;DHT22;10761;48.532;8.026;2022-10-16T17:18:14;19.70;99.90
21207;DHT22;10761;48.532;8.026;2022-10-16T17:20:40;19.60;99.90
21207;DHT22;10761;48.532;8.026;2022-10-16T17:23:07;19.50;99.90
21207;DHT22;10761;48.532;8.026;2022-10-16T17:25:35;19.50;99.90
21207;DHT22;10761;48.532;8.026;2022-10-16T17:28:01;19.40;99.90
21207;DHT22;10761;48.532;8.026;2022-10-16T17:30:27;19.40;99.90
21207;DHT22;10761;48.532;8.026;2022-10-16T17:32:52;19.40;99.90
21207;DHT22;10761;48.532;8.026;2022-10-16T17:35:18;19.40;99.90